createdAt,value
2019-02-21T00:01:00.763Z,61.90
2019-02-21T00:03:30.044Z,62.51
2019-02-21T00:05:59.323Z,62.26
2019-02-21T00:08:28.693Z,61.84
2019-02-21T00:10:57.973Z,62.17
2019-02-21T00:13:27.240Z,62.03
2019-02-21T00:15:56.521Z,62.11
2019-02-21T00:18:25.795Z,63.72
2019-02-21T00:20:55.120Z,63.93
2019-02-21T00:23:24.376Z,63.75
2019-02-21T00:25:55.734Z,63.61
2019-02-21T00:28:24.679Z,62.73
2019-02-21T00:30:53.972Z,62.49
2019-02-21T00:33:23.224Z,62.46
2019-02-21T00:35:52.508Z,62.89
2019-02-21T00:38:21.742Z,62.85
2019-02-21T00:40:51.049Z,62.52
2019-02-21T00:43:20.303Z,62.35
2019-02-21T00:45:49.589Z,62.56
2019-02-21T00:48:18.862Z,63.17
2019-02-21T00:50:48.169Z,64.15
2019-02-21T00:53:17.430Z,63.75
2019-02-21T00:55:46.754Z,63.72
2019-02-21T00:58:16.053Z,63.26
2019-02-21T01:00:46.732Z,63.34
2019-02-21T01:03:16.266Z,63.29
2019-02-21T01:05:45.566Z,63.48
2019-02-21T01:08:14.828Z,62.65
2019-02-21T01:10:44.112Z,63.20
2019-02-21T01:13:13.372Z,63.08
2019-02-21T01:15:42.643Z,63.03
2019-02-21T01:18:11.911Z,63.09
2019-02-21T01:20:41.186Z,63.29
2019-02-21T01:23:10.455Z,63.80
2019-02-21T01:25:39.715Z,64.19
2019-02-21T01:28:08.993Z,64.15
2019-02-21T01:30:38.246Z,64.31
2019-02-21T01:33:07.540Z,64.14
2019-02-21T01:35:36.789Z,63.89
2019-02-21T01:38:06.106Z,63.35
2019-02-21T01:40:35.413Z,63.75
2019-02-21T01:43:04.685Z,64.16
2019-02-21T01:45:33.936Z,64.05
2019-02-21T01:48:03.229Z,63.78
2019-02-21T01:50:32.918Z,63.56
2019-02-21T01:53:02.194Z,63.56
2019-02-21T01:55:31.430Z,63.00
2019-02-21T01:58:00.691Z,63.22
2019-02-21T02:00:29.953Z,63.44
2019-02-21T02:02:59.318Z,63.47
2019-02-21T02:05:28.709Z,63.22
2019-02-21T02:07:58.036Z,63.37
2019-02-21T02:10:27.425Z,63.14
2019-02-21T02:12:56.709Z,63.11
2019-02-21T02:15:26.011Z,62.79
2019-02-21T02:17:55.255Z,63.12
2019-02-21T02:20:24.575Z,62.39
2019-02-21T02:22:53.853Z,62.36
2019-02-21T02:25:23.130Z,62.83
2019-02-21T02:27:52.391Z,62.25
2019-02-21T02:30:21.693Z,62.69
2019-02-21T02:32:50.954Z,62.65
2019-02-21T02:35:20.256Z,62.21
2019-02-21T02:37:49.548Z,61.95
2019-02-21T02:40:18.837Z,62.40
2019-02-21T02:42:48.082Z,62.88
2019-02-21T02:45:17.357Z,63.45
2019-02-21T02:47:46.634Z,63.19
2019-02-21T02:50:15.911Z,63.01
2019-02-21T02:52:45.167Z,62.42
2019-02-21T02:55:14.431Z,64.05
2019-02-21T02:57:43.714Z,64.92
2019-02-21T03:00:14.438Z,63.16
2019-02-21T03:02:43.670Z,62.88
2019-02-21T03:05:13.022Z,63.14
2019-02-21T03:07:42.280Z,63.67
2019-02-21T03:10:13.949Z,63.21
2019-02-21T03:12:43.252Z,63.31
2019-02-21T03:15:12.498Z,63.58
2019-02-21T03:17:41.772Z,64.26
2019-02-21T03:20:11.203Z,64.09
2019-02-21T03:22:40.448Z,63.39
2019-02-21T03:25:09.854Z,63.84
2019-02-21T03:27:39.143Z,64.13
2019-02-21T03:30:12.194Z,64.36
2019-02-21T03:32:40.109Z,63.73
2019-02-21T03:35:09.481Z,63.60
2019-02-21T03:37:38.943Z,64.43
2019-02-21T03:40:08.866Z,63.63
2019-02-21T03:42:38.188Z,64.32
2019-02-21T03:45:08.692Z,64.66
2019-02-21T03:47:38.005Z,65.48
2019-02-21T03:50:08.006Z,65.18
2019-02-21T03:52:37.362Z,65.17
2019-02-21T03:55:07.956Z,65.66
2019-02-21T03:57:37.416Z,65.79
2019-02-21T04:00:08.096Z,65.69
2019-02-21T04:02:37.467Z,65.43
2019-02-21T04:05:07.666Z,65.02
2019-02-21T04:07:36.930Z,64.73
2019-02-21T04:10:06.584Z,64.87
2019-02-21T04:12:35.848Z,65.28
2019-02-21T04:15:05.705Z,65.74
2019-02-21T04:17:35.024Z,65.43
2019-02-21T04:20:04.315Z,65.16
2019-02-21T04:22:33.627Z,65.70
2019-02-21T04:25:02.909Z,65.21
2019-02-21T04:27:32.183Z,66.64
2019-02-21T04:30:01.588Z,66.31
2019-02-21T04:32:30.870Z,64.96
2019-02-21T04:35:00.379Z,66.60
2019-02-21T04:37:29.695Z,66.83
2019-02-21T04:39:58.994Z,66.83
2019-02-21T04:42:28.321Z,67.59
2019-02-21T04:45:00.511Z,66.32
2019-02-21T04:47:28.609Z,65.75
2019-02-21T04:49:57.902Z,67.02
2019-02-21T04:52:28.404Z,66.56
2019-02-21T04:54:57.599Z,66.91
2019-02-21T04:57:26.840Z,66.64
2019-02-21T04:59:56.150Z,66.14
2019-02-21T05:02:28.937Z,66.44
2019-02-21T05:04:56.479Z,66.81
2019-02-21T05:07:25.849Z,66.35
2019-02-21T05:09:58.238Z,66.47
2019-02-21T05:12:26.245Z,67.17
2019-02-21T05:14:55.640Z,66.38
2019-02-21T05:17:24.902Z,67.06
2019-02-21T05:19:54.209Z,66.20
2019-02-21T05:22:23.497Z,67.41
2019-02-21T05:24:52.786Z,66.82
2019-02-21T05:27:29.434Z,67.17
2019-02-21T05:29:58.703Z,67.31
2019-02-21T05:32:45.752Z,67.01
2019-02-21T05:35:30.938Z,66.97
2019-02-21T05:38:15.371Z,66.76
2019-02-21T05:40:52.138Z,66.30
2019-02-21T05:43:26.424Z,66.00
2019-02-21T05:46:14.673Z,65.52
2019-02-21T05:49:11.972Z,65.37
2019-02-21T05:51:48.939Z,66.11
2019-02-21T05:54:43.094Z,65.84
2019-02-21T05:57:31.322Z,66.63
2019-02-21T06:00:25.773Z,66.14
2019-02-21T06:03:07.143Z,66.48
2019-02-21T06:05:58.130Z,66.57
2019-02-21T06:08:55.228Z,66.67
2019-02-21T06:11:52.593Z,66.71
2019-02-21T06:14:33.841Z,66.71
2019-02-21T06:17:09.291Z,66.45
2019-02-21T06:20:06.619Z,66.26
2019-02-21T06:22:53.243Z,67.53
2019-02-21T06:25:34.025Z,67.06
2019-02-21T06:28:07.525Z,67.53
2019-02-21T06:30:43.245Z,67.17
2019-02-21T06:33:11.709Z,67.07
2019-02-21T06:35:40.972Z,66.90
2019-02-21T06:38:10.273Z,66.03
2019-02-21T06:40:39.745Z,67.58
2019-02-21T06:43:09.057Z,66.94
2019-02-21T06:45:38.287Z,67.34
2019-02-21T06:48:07.589Z,67.33
2019-02-21T06:50:36.855Z,67.54
2019-02-21T06:53:06.198Z,67.20
2019-02-21T06:55:35.549Z,67.45
2019-02-21T06:58:04.918Z,67.53
2019-02-21T07:00:34.149Z,67.31
2019-02-21T07:03:03.584Z,67.61
2019-02-21T07:05:32.862Z,66.49
2019-02-21T07:08:02.149Z,66.94
2019-02-21T07:10:31.485Z,66.51
2019-02-21T07:13:00.863Z,66.39
2019-02-21T07:15:30.151Z,66.41
2019-02-21T07:17:59.430Z,66.81
2019-02-21T07:20:28.705Z,66.18
2019-02-21T07:22:57.966Z,62.62
2019-02-21T07:25:34.544Z,62.96
2019-02-21T07:28:11.198Z,61.37
2019-02-21T07:30:34.841Z,62.99
2019-02-21T07:33:04.097Z,62.28
2019-02-21T07:35:33.371Z,61.15
2019-02-21T07:38:02.645Z,61.48
2019-02-21T07:40:31.924Z,60.21
2019-02-21T07:43:01.209Z,60.59
2019-02-21T07:45:30.487Z,60.17
2019-02-21T07:47:59.827Z,61.83
2019-02-21T07:50:29.134Z,61.87
2019-02-21T07:53:02.539Z,62.17
2019-02-21T07:55:29.468Z,60.92
2019-02-21T07:57:58.718Z,61.59
2019-02-21T08:00:28.035Z,60.70
2019-02-21T08:02:57.307Z,60.31
2019-02-21T08:05:26.626Z,59.30
2019-02-21T08:07:55.898Z,59.54
2019-02-21T08:10:33.220Z,58.82
2019-02-21T08:12:56.289Z,60.04
2019-02-21T08:15:27.676Z,59.00
2019-02-21T08:17:56.607Z,59.46
2019-02-21T08:20:33.510Z,58.76
2019-02-21T08:22:56.905Z,59.46
2019-02-21T08:25:26.145Z,59.36
2019-02-21T08:27:55.457Z,59.54
2019-02-21T08:30:24.713Z,59.53
2019-02-21T08:33:22.033Z,60.14
2019-02-21T08:35:53.902Z,58.92
2019-02-21T08:38:22.361Z,58.46
2019-02-21T08:40:53.313Z,59.13
2019-02-21T08:43:22.669Z,58.52
2019-02-21T08:45:51.940Z,58.33
2019-02-21T08:48:21.279Z,57.28
2019-02-21T08:50:50.532Z,57.89
2019-02-21T08:53:19.866Z,57.77
2019-02-21T08:55:49.122Z,58.17
2019-02-21T08:58:18.530Z,58.12
2019-02-21T09:00:47.841Z,58.22
2019-02-21T09:03:18.173Z,56.87
2019-02-21T09:05:47.603Z,57.50
2019-02-21T09:08:17.004Z,56.53
2019-02-21T09:10:46.352Z,56.95
2019-02-21T09:13:15.647Z,54.85
2019-02-21T09:15:46.610Z,54.64
2019-02-21T09:18:16.091Z,55.06
2019-02-21T09:20:47.764Z,56.15
2019-02-21T09:23:16.415Z,55.52
2019-02-21T09:25:49.618Z,55.66
2019-02-21T09:28:19.080Z,55.26
2019-02-21T09:30:48.333Z,55.13
2019-02-21T09:33:21.116Z,55.77
2019-02-21T09:35:48.723Z,55.29
2019-02-21T09:38:18.088Z,54.43
2019-02-21T09:40:47.332Z,54.23
2019-02-21T09:43:16.622Z,53.54
2019-02-21T09:45:45.896Z,54.75
2019-02-21T09:48:15.168Z,55.95
2019-02-21T09:50:44.497Z,55.39
2019-02-21T09:53:13.782Z,53.98
2019-02-21T09:55:43.082Z,54.87
2019-02-21T09:58:12.344Z,54.98
2019-02-21T10:00:41.626Z,55.89
2019-02-21T10:03:10.873Z,54.28
2019-02-21T10:05:40.149Z,55.72
2019-02-21T10:08:09.403Z,54.98
2019-02-21T10:10:38.740Z,56.73
2019-02-21T10:13:08.023Z,56.78
2019-02-21T10:15:37.317Z,56.40
2019-02-21T10:18:06.568Z,56.04
2019-02-21T10:20:35.853Z,56.14
2019-02-21T10:23:05.095Z,54.85
2019-02-21T10:25:34.402Z,54.59
2019-02-21T10:28:03.708Z,54.63
2019-02-21T10:30:33.041Z,52.57
2019-02-21T10:33:02.300Z,52.85
2019-02-21T10:35:31.656Z,52.70
2019-02-21T10:38:00.940Z,52.32
2019-02-21T10:40:30.242Z,51.14
2019-02-21T10:42:59.557Z,51.86
2019-02-21T10:45:28.830Z,52.68
2019-02-21T10:47:58.111Z,52.67
2019-02-21T10:50:27.390Z,51.58
2019-02-21T10:52:56.704Z,52.50
2019-02-21T10:55:25.981Z,52.95
2019-02-21T10:57:55.263Z,52.04
2019-02-21T11:00:26.891Z,51.66
2019-02-21T11:02:56.155Z,52.48
2019-02-21T11:05:25.432Z,52.14
2019-02-21T11:07:54.738Z,53.06
2019-02-21T11:10:25.954Z,52.41
2019-02-21T11:12:55.312Z,53.20
2019-02-21T11:15:24.916Z,53.50
2019-02-21T11:17:54.307Z,52.84
2019-02-21T11:20:23.613Z,52.15
2019-02-21T11:22:52.921Z,51.83
2019-02-21T11:25:22.195Z,51.33
2019-02-21T11:27:51.489Z,50.64
2019-02-21T11:30:20.880Z,50.75
2019-02-21T11:32:50.207Z,51.05
2019-02-21T11:35:19.537Z,50.91
2019-02-21T11:37:48.844Z,51.68
2019-02-21T11:40:18.293Z,51.41
2019-02-21T11:42:47.673Z,50.45
2019-02-21T11:45:17.593Z,49.25
2019-02-21T11:47:46.880Z,49.36
2019-02-21T11:50:17.083Z,48.79
2019-02-21T11:52:46.368Z,49.21
2019-02-21T11:55:18.032Z,48.08
2019-02-21T11:57:47.411Z,48.97
2019-02-21T12:00:21.544Z,48.40
2019-02-21T12:02:50.841Z,49.62
2019-02-21T12:05:30.688Z,49.74
2019-02-21T12:07:51.478Z,49.05
2019-02-21T12:10:20.888Z,48.88
2019-02-21T12:12:50.156Z,47.96
2019-02-21T12:15:19.572Z,47.34
2019-02-21T12:17:48.850Z,46.63
2019-02-21T12:20:18.357Z,47.17
2019-02-21T12:22:47.641Z,47.47
2019-02-21T12:25:17.282Z,45.60
2019-02-21T12:27:46.557Z,45.25
2019-02-21T12:30:17.407Z,45.52
2019-02-21T12:32:46.776Z,45.48
2019-02-21T12:35:16.073Z,46.69
2019-02-21T12:37:45.374Z,45.84
2019-02-21T12:40:17.148Z,46.51
2019-02-21T12:42:46.427Z,45.97
2019-02-21T12:45:17.590Z,45.61
2019-02-21T12:47:53.146Z,46.01
2019-02-21T12:50:17.976Z,47.04
2019-02-21T12:52:47.247Z,47.11
2019-02-21T12:55:27.300Z,46.81
2019-02-21T12:57:47.534Z,47.17
2019-02-21T13:00:18.203Z,47.01
2019-02-21T13:02:47.479Z,47.61
2019-02-21T13:05:16.771Z,46.74
2019-02-21T13:07:46.079Z,47.01
2019-02-21T13:10:16.957Z,47.22
2019-02-21T13:12:46.246Z,47.49
2019-02-21T13:15:15.898Z,47.45
2019-02-21T13:17:45.182Z,46.43
2019-02-21T13:20:14.762Z,47.40
2019-02-21T13:22:44.218Z,47.40
2019-02-21T13:25:13.820Z,47.81
2019-02-21T13:27:43.107Z,48.35
2019-02-21T13:30:14.644Z,48.54
2019-02-21T13:32:43.985Z,48.56
2019-02-21T13:35:13.418Z,49.43
2019-02-21T13:37:42.818Z,47.59
2019-02-21T13:40:13.445Z,49.52
2019-02-21T13:42:42.743Z,48.45
2019-02-21T13:45:17.006Z,48.12
2019-02-21T13:47:44.995Z,49.35
2019-02-21T13:50:15.761Z,48.42
2019-02-21T13:52:45.070Z,48.28
2019-02-21T13:55:14.319Z,48.54
2019-02-21T13:57:43.610Z,48.66
2019-02-21T14:00:15.454Z,48.31
2019-02-21T14:02:44.766Z,48.09
2019-02-21T14:05:14.136Z,47.99
2019-02-21T14:07:43.469Z,48.34
2019-02-21T14:10:15.253Z,48.19
2019-02-21T14:12:44.552Z,47.99
2019-02-21T14:15:16.581Z,47.72
2019-02-21T14:17:46.733Z,48.03
2019-02-21T14:20:16.244Z,46.98
2019-02-21T14:22:45.530Z,48.42
2019-02-21T14:25:14.854Z,48.08
2019-02-21T14:27:44.139Z,47.73
2019-02-21T14:30:15.486Z,48.73
2019-02-21T14:32:44.770Z,47.49
2019-02-21T14:35:14.705Z,48.15
2019-02-21T14:37:44.018Z,47.78
2019-02-21T14:40:16.059Z,48.25
2019-02-21T14:42:45.404Z,49.77
2019-02-21T14:45:16.226Z,47.63
2019-02-21T14:47:45.499Z,49.14
2019-02-21T14:50:14.953Z,48.68
2019-02-21T14:52:44.303Z,48.87
2019-02-21T14:55:15.397Z,48.65
2019-02-21T14:57:44.759Z,49.95
2019-02-21T15:00:20.018Z,49.73
2019-02-21T15:02:49.353Z,50.89
2019-02-21T15:05:19.344Z,49.73
2019-02-21T15:07:48.693Z,50.12
2019-02-21T15:10:18.062Z,49.64
2019-02-21T15:12:47.727Z,48.78
2019-02-21T15:15:17.881Z,49.46
2019-02-21T15:17:47.206Z,49.23
2019-02-21T15:20:17.165Z,49.72
2019-02-21T15:22:46.562Z,51.96
2019-02-21T15:25:15.880Z,51.94
2019-02-21T15:27:45.192Z,51.93
2019-02-21T15:30:16.195Z,50.91
2019-02-21T15:32:45.580Z,52.52
2019-02-21T15:35:15.256Z,52.48
2019-02-21T15:37:45.162Z,51.66
2019-02-21T15:40:14.711Z,51.44
2019-02-21T15:42:44.072Z,51.79
2019-02-21T15:45:22.981Z,51.61
2019-02-21T15:47:46.474Z,52.08
2019-02-21T15:50:15.855Z,52.01
2019-02-21T15:52:45.431Z,52.83
2019-02-21T15:55:15.354Z,51.86
2019-02-21T15:57:44.699Z,51.17
2019-02-21T16:00:16.227Z,51.62
2019-02-21T16:02:45.573Z,51.37
2019-02-21T16:05:14.869Z,51.33
2019-02-21T16:07:44.323Z,51.04
2019-02-21T16:10:15.895Z,51.23
2019-02-21T16:12:45.598Z,51.28
2019-02-21T16:15:16.564Z,51.29
2019-02-21T16:17:46.129Z,51.33
2019-02-21T16:20:15.893Z,51.25
2019-02-21T16:22:45.404Z,51.45
2019-02-21T16:25:16.836Z,51.42
2019-02-21T16:27:46.157Z,50.92
2019-02-21T16:30:15.665Z,50.52
2019-02-21T16:32:45.005Z,50.28
2019-02-21T16:35:14.334Z,50.19
2019-02-21T16:37:43.631Z,50.08
2019-02-21T16:40:13.729Z,49.75
2019-02-21T16:42:43.017Z,50.52
2019-02-21T16:45:13.411Z,50.45
2019-02-21T16:47:42.750Z,50.22
2019-02-21T16:50:12.911Z,51.00
2019-02-21T16:52:42.246Z,50.51
2019-02-21T16:55:13.819Z,50.25
2019-02-21T16:57:43.179Z,50.35
2019-02-21T17:00:13.466Z,50.43
2019-02-21T17:02:42.751Z,50.15
2019-02-21T17:05:12.272Z,50.55
2019-02-21T17:07:41.590Z,50.34
2019-02-21T17:10:12.121Z,50.22
2019-02-21T17:12:41.446Z,50.22
2019-02-21T17:15:11.593Z,49.71
2019-02-21T17:17:40.946Z,50.48
2019-02-21T17:20:11.950Z,49.77
2019-02-21T17:22:41.250Z,50.03
2019-02-21T17:25:11.531Z,50.63
2019-02-21T17:27:40.824Z,52.33
2019-02-21T17:30:11.492Z,52.75
2019-02-21T17:32:40.789Z,52.82
2019-02-21T17:35:10.190Z,53.57
2019-02-21T17:37:39.564Z,54.97
2019-02-21T17:40:10.815Z,56.19
2019-02-21T17:42:40.277Z,54.78
2019-02-21T17:45:10.513Z,55.27
2019-02-21T17:47:39.819Z,56.79
2019-02-21T17:50:11.058Z,58.48
2019-02-21T17:52:40.477Z,58.64
2019-02-21T17:55:10.082Z,58.62
2019-02-21T17:57:39.411Z,59.25
2019-02-21T18:00:11.958Z,59.41
2019-02-21T18:02:41.342Z,60.72
2019-02-21T18:05:10.736Z,61.10
2019-02-21T18:07:40.122Z,60.89
2019-02-21T18:10:11.493Z,61.11
2019-02-21T18:12:40.845Z,61.08
2019-02-21T18:15:10.677Z,61.16
2019-02-21T18:17:40.033Z,61.58
2019-02-21T18:20:10.279Z,61.15
2019-02-21T18:22:39.778Z,61.11
2019-02-21T18:25:12.517Z,61.60
2019-02-21T18:27:43.687Z,61.45
2019-02-21T18:30:14.335Z,61.41
2019-02-21T18:32:43.662Z,61.31
2019-02-21T18:35:13.040Z,61.02
2019-02-21T18:37:47.540Z,62.08
2019-02-21T18:40:18.490Z,62.12
2019-02-21T18:42:46.430Z,62.21
2019-02-21T18:45:15.871Z,62.18
2019-02-21T18:47:45.226Z,61.42
2019-02-21T18:50:14.837Z,60.47
2019-02-21T18:52:44.162Z,60.43
2019-02-21T18:55:13.864Z,60.47
2019-02-21T18:57:43.145Z,59.93
2019-02-21T19:00:14.072Z,61.05
2019-02-21T19:02:43.352Z,60.13
2019-02-21T19:05:12.736Z,59.54
2019-02-21T19:07:42.084Z,59.83
2019-02-21T19:10:12.623Z,59.83
2019-02-21T19:12:42.125Z,59.27
2019-02-21T19:15:11.826Z,60.06
2019-02-21T19:17:41.262Z,60.15
2019-02-21T19:20:11.685Z,59.70
2019-02-21T19:22:41.228Z,59.74
2019-02-21T19:25:11.125Z,60.45
2019-02-21T19:27:40.537Z,61.36
2019-02-21T19:30:16.875Z,63.31
2019-02-21T19:32:46.265Z,63.10
2019-02-21T19:35:16.316Z,63.34
2019-02-21T19:37:45.790Z,63.23
2019-02-21T19:40:16.139Z,64.81
2019-02-21T19:42:45.564Z,65.50
2019-02-21T19:45:14.985Z,65.02
2019-02-21T19:47:44.377Z,64.36
2019-02-21T19:50:14.370Z,63.93
2019-02-21T19:52:43.815Z,64.79
2019-02-21T19:55:13.733Z,64.68
2019-02-21T19:57:43.182Z,65.12
2019-02-21T20:00:14.324Z,64.99
2019-02-21T20:02:43.756Z,67.00
2019-02-21T20:05:13.699Z,66.84
2019-02-21T20:07:43.039Z,67.96
2019-02-21T20:10:12.492Z,66.56
2019-02-21T20:12:42.135Z,67.74
2019-02-21T20:15:11.657Z,65.77
2019-02-21T20:17:40.994Z,65.62
2019-02-21T20:20:11.613Z,67.47
2019-02-21T20:22:40.978Z,67.43
2019-02-21T20:25:10.330Z,67.11
2019-02-21T20:27:39.805Z,68.21
2019-02-21T20:30:11.089Z,67.69
2019-02-21T20:32:40.618Z,67.10
2019-02-21T20:35:10.178Z,67.77
2019-02-21T20:37:39.669Z,68.74
2019-02-21T20:40:09.274Z,69.85
2019-02-21T20:42:38.589Z,68.99
2019-02-21T20:45:08.600Z,69.50
2019-02-21T20:47:37.971Z,70.51
2019-02-21T20:50:08.061Z,69.66
2019-02-21T20:52:37.430Z,69.38
2019-02-21T20:55:07.812Z,69.76
2019-02-21T20:57:37.179Z,71.24
2019-02-21T21:00:07.600Z,70.03
2019-02-21T21:02:38.273Z,68.81
2019-02-21T21:05:08.003Z,67.67
2019-02-21T21:07:37.381Z,66.98
2019-02-21T21:10:09.305Z,66.92
2019-02-21T21:12:38.689Z,65.03
2019-02-21T21:15:09.548Z,65.22
2019-02-21T21:17:39.143Z,66.00
2019-02-21T21:20:16.511Z,67.36
2019-02-21T21:22:40.936Z,65.90
2019-02-21T21:25:11.916Z,65.85
2019-02-21T21:27:41.289Z,66.79
2019-02-21T21:30:12.369Z,67.98
2019-02-21T21:32:41.764Z,67.23
2019-02-21T21:35:11.510Z,66.95
2019-02-21T21:37:40.791Z,67.22
2019-02-21T21:40:11.936Z,67.11
2019-02-21T21:42:41.372Z,65.76
2019-02-21T21:45:13.382Z,66.99
2019-02-21T21:47:42.762Z,67.13
2019-02-21T21:50:14.145Z,65.90
2019-02-21T21:52:43.508Z,65.44
2019-02-21T21:55:12.837Z,66.93
2019-02-21T21:57:42.236Z,67.43
2019-02-21T22:00:17.932Z,66.89
2019-02-21T22:02:46.800Z,66.83
2019-02-21T22:05:16.382Z,68.01
2019-02-21T22:07:49.526Z,68.24
2019-02-21T22:10:19.148Z,67.30
2019-02-21T22:12:48.488Z,68.50
2019-02-21T22:15:18.068Z,68.03
2019-02-21T22:17:47.444Z,67.34
2019-02-21T22:20:16.773Z,67.61
2019-02-21T22:22:46.108Z,69.17
2019-02-21T22:25:15.427Z,68.59
2019-02-21T22:27:44.813Z,66.89
2019-02-21T22:30:16.611Z,68.92
2019-02-21T22:32:46.030Z,66.99
2019-02-21T22:35:15.371Z,69.66
2019-02-21T22:37:44.755Z,69.06
2019-02-21T22:40:14.475Z,69.87
2019-02-21T22:42:43.818Z,71.22
2019-02-21T22:45:13.600Z,70.45
2019-02-21T22:47:42.927Z,69.80
2019-02-21T22:50:13.863Z,68.70
2019-02-21T22:52:43.251Z,69.16
2019-02-21T22:55:12.782Z,69.57
2019-02-21T22:57:42.189Z,70.51
2019-02-21T23:01:12.772Z,69.52
2019-02-21T23:03:50.763Z,68.10
2019-02-21T23:06:47.084Z,68.08
2019-02-21T23:09:27.455Z,68.59
2019-02-21T23:11:57.098Z,68.82
2019-02-21T23:14:36.997Z,70.06
2019-02-21T23:17:06.410Z,70.46
2019-02-21T23:19:59.979Z,71.39
2019-02-21T23:22:30.552Z,70.28
2019-02-21T23:24:59.887Z,70.56
2019-02-21T23:27:29.322Z,71.10
2019-02-21T23:29:58.807Z,70.35
2019-02-21T23:32:28.167Z,71.67
2019-02-21T23:35:00.792Z,69.70
2019-02-21T23:37:30.095Z,69.98
2019-02-21T23:40:09.347Z,70.59
2019-02-21T23:42:39.740Z,70.67
2019-02-21T23:45:09.221Z,71.34
2019-02-21T23:47:49.003Z,71.62
2019-02-21T23:50:09.572Z,71.18
2019-02-21T23:52:38.924Z,70.79
2019-02-21T23:55:08.250Z,70.88
2019-02-21T23:57:38.845Z,70.97
